createdAt,value
2022-09-11T00:01:00.093Z,13.74
2022-09-11T00:03:28.117Z,13.53
2022-09-11T00:05:54.895Z,13.54
2022-09-11T00:08:21.989Z,13.49
2022-09-11T00:10:49.009Z,13.44
2022-09-11T00:13:23.573Z,13.36
2022-09-11T00:15:52.320Z,13.30
2022-09-11T00:18:23.884Z,13.38
2022-09-11T00:20:52.968Z,13.30
2022-09-11T00:23:20.870Z,13.18
2022-09-11T00:25:48.060Z,13.05
2022-09-11T00:28:20.581Z,13.00
2022-09-11T00:30:56.535Z,12.95
2022-09-11T00:33:23.162Z,12.99
2022-09-11T00:35:58.797Z,12.96
2022-09-11T00:38:28.199Z,12.87
2022-09-11T00:40:56.576Z,12.85
2022-09-11T00:43:23.296Z,12.91
2022-09-11T00:45:57.555Z,12.93
2022-09-11T00:48:26.775Z,12.94
2022-09-11T00:50:54.764Z,13.00
2022-09-11T00:53:25.067Z,12.99
2022-09-11T00:55:55.592Z,13.04
2022-09-11T00:58:27.938Z,13.15
2022-09-11T01:00:56.544Z,13.30
2022-09-11T01:03:25.542Z,13.32
2022-09-11T01:05:54.708Z,13.34
2022-09-11T01:08:22.754Z,13.37
2022-09-11T01:11:07.915Z,13.52
2022-09-11T01:13:59.332Z,13.52
2022-09-11T01:16:35.610Z,13.62
2022-09-11T01:19:37.197Z,13.49
2022-09-11T01:22:03.652Z,13.52
2022-09-11T01:24:53.385Z,13.55
2022-09-11T01:27:39.803Z,13.63
2022-09-11T01:30:11.913Z,13.72
2022-09-11T01:32:50.510Z,13.67
2022-09-11T01:35:44.236Z,13.68
2022-09-11T01:38:22.871Z,13.51
2022-09-11T01:41:07.859Z,13.41
2022-09-11T01:43:41.376Z,13.45
2022-09-11T01:46:09.235Z,13.71
2022-09-11T01:48:45.504Z,13.58
2022-09-11T01:51:18.427Z,13.62
2022-09-11T01:53:50.339Z,13.72
2022-09-11T01:56:30.117Z,13.73
2022-09-11T01:59:01.742Z,13.79
2022-09-11T02:01:32.661Z,13.78
2022-09-11T02:04:11.821Z,13.86
2022-09-11T02:06:50.449Z,13.75
2022-09-11T02:09:21.906Z,13.70
2022-09-11T02:11:51.895Z,13.81
2022-09-11T02:14:30.106Z,13.71
2022-09-11T02:17:15.460Z,13.69
2022-09-11T02:19:42.126Z,13.76
2022-09-11T02:22:08.881Z,13.77
2022-09-11T02:24:35.589Z,13.84
2022-09-11T02:27:05.970Z,13.76
2022-09-11T02:29:33.426Z,13.77
2022-09-11T02:32:01.320Z,13.79
2022-09-11T02:34:32.772Z,13.81
2022-09-11T02:37:21.306Z,13.77
2022-09-11T02:40:07.544Z,13.81
2022-09-11T02:42:43.614Z,13.78
2022-09-11T02:45:48.119Z,13.87
2022-09-11T02:48:30.011Z,13.77
2022-09-11T02:51:07.670Z,13.72
2022-09-11T02:53:52.598Z,13.79
2022-09-11T02:56:44.000Z,13.71
2022-09-11T02:59:24.511Z,13.65
2022-09-11T03:01:56.553Z,13.47
2022-09-11T03:04:24.752Z,13.36
2022-09-11T03:06:52.885Z,13.35
2022-09-11T03:09:20.364Z,13.26
2022-09-11T03:11:47.266Z,13.31
2022-09-11T03:14:14.461Z,13.20
2022-09-11T03:16:41.647Z,13.05
2022-09-11T03:19:08.523Z,13.06
2022-09-11T03:21:35.295Z,13.03
2022-09-11T03:24:02.552Z,12.95
2022-09-11T03:26:29.699Z,12.86
2022-09-11T03:28:56.291Z,12.79
2022-09-11T03:31:22.955Z,12.76
2022-09-11T03:33:49.600Z,12.76
2022-09-11T03:36:16.205Z,12.73
2022-09-11T03:38:42.698Z,12.78
2022-09-11T03:41:09.617Z,12.73
2022-09-11T03:43:36.192Z,12.75
2022-09-11T03:46:03.263Z,12.71
2022-09-11T03:48:29.828Z,12.77
2022-09-11T03:50:56.494Z,12.79
2022-09-11T03:53:23.035Z,12.75
2022-09-11T03:55:52.474Z,12.83
2022-09-11T03:58:19.479Z,12.71
2022-09-11T04:00:47.539Z,12.66
2022-09-11T04:03:17.958Z,12.64
2022-09-11T04:05:57.254Z,12.64
2022-09-11T04:08:23.777Z,12.63
2022-09-11T04:10:57.106Z,12.63
2022-09-11T04:13:32.165Z,12.75
2022-09-11T04:16:11.608Z,12.74
2022-09-11T04:18:39.843Z,12.70
2022-09-11T04:21:08.932Z,12.78
2022-09-11T04:23:36.247Z,12.87
2022-09-11T04:26:04.129Z,12.86
2022-09-11T04:28:31.680Z,12.89
2022-09-11T04:31:04.472Z,12.94
2022-09-11T04:33:31.236Z,13.08
2022-09-11T04:35:57.832Z,13.04
2022-09-11T04:38:24.754Z,13.10
2022-09-11T04:40:51.464Z,13.05
2022-09-11T04:43:18.015Z,13.08
2022-09-11T04:45:44.632Z,13.10
2022-09-11T04:48:11.159Z,13.10
2022-09-11T04:50:37.712Z,13.12
2022-09-11T04:53:04.407Z,13.14
2022-09-11T04:55:30.925Z,13.08
2022-09-11T04:57:57.430Z,13.02
2022-09-11T05:00:25.149Z,13.07
2022-09-11T05:02:54.584Z,13.13
2022-09-11T05:05:21.279Z,13.13
2022-09-11T05:07:50.816Z,13.07
2022-09-11T05:10:17.408Z,13.03
2022-09-11T05:12:43.929Z,13.02
2022-09-11T05:15:11.028Z,13.11
2022-09-11T05:17:39.019Z,13.10
2022-09-11T05:20:11.210Z,12.97
2022-09-11T05:22:38.369Z,13.09
2022-09-11T05:25:05.173Z,13.15
2022-09-11T05:27:31.677Z,13.18
2022-09-11T05:29:58.190Z,13.10
2022-09-11T05:32:24.664Z,13.07
2022-09-11T05:34:51.455Z,13.15
2022-09-11T05:37:17.984Z,13.19
2022-09-11T05:39:44.557Z,13.21
2022-09-11T05:42:11.831Z,13.22
2022-09-11T05:44:38.426Z,13.16
2022-09-11T05:47:05.105Z,13.29
2022-09-11T05:49:31.696Z,13.30
2022-09-11T05:51:58.193Z,13.39
2022-09-11T05:54:25.399Z,13.40
2022-09-11T05:56:51.914Z,13.42
2022-09-11T05:59:20.609Z,13.56
2022-09-11T06:01:47.984Z,13.53
2022-09-11T06:04:14.630Z,13.62
2022-09-11T06:06:41.218Z,13.53
2022-09-11T06:09:10.879Z,13.60
2022-09-11T06:11:37.376Z,13.52
2022-09-11T06:14:03.862Z,13.41
2022-09-11T06:16:31.723Z,13.46
2022-09-11T06:18:58.540Z,13.51
2022-09-11T06:21:26.847Z,13.45
2022-09-11T06:23:53.886Z,13.51
2022-09-11T06:26:23.176Z,13.53
2022-09-11T06:28:51.016Z,13.61
2022-09-11T06:31:20.799Z,13.48
2022-09-11T06:33:48.328Z,13.42
2022-09-11T06:36:17.137Z,13.49
2022-09-11T06:38:44.709Z,13.63
2022-09-11T06:41:14.877Z,13.57
2022-09-11T06:43:42.287Z,13.63
2022-09-11T06:46:14.614Z,13.67
2022-09-11T06:48:43.126Z,13.76
2022-09-11T06:51:18.175Z,13.73
2022-09-11T06:53:47.506Z,13.81
2022-09-11T06:56:17.844Z,13.85
2022-09-11T06:58:46.085Z,14.06
2022-09-11T07:01:18.497Z,14.22
2022-09-11T07:03:46.969Z,14.35
2022-09-11T07:06:15.554Z,14.42
2022-09-11T07:08:42.104Z,14.32
2022-09-11T07:11:10.058Z,14.44
2022-09-11T07:13:38.214Z,14.43
2022-09-11T07:16:08.161Z,14.45
2022-09-11T07:18:40.060Z,14.48
2022-09-11T07:21:11.651Z,14.41
2022-09-11T07:23:39.494Z,14.53
2022-09-11T07:26:08.954Z,14.57
2022-09-11T07:28:37.660Z,14.56
2022-09-11T07:31:18.715Z,14.60
2022-09-11T07:33:48.884Z,14.70
2022-09-11T07:36:23.872Z,14.70
2022-09-11T07:38:51.265Z,14.77
2022-09-11T07:41:21.480Z,14.72
2022-09-11T07:43:55.250Z,14.89
2022-09-11T07:46:22.341Z,14.94
2022-09-11T07:48:48.888Z,14.83
2022-09-11T07:51:17.365Z,14.75
2022-09-11T07:53:46.269Z,14.87
2022-09-11T07:56:18.522Z,15.04
2022-09-11T07:58:45.634Z,14.93
2022-09-11T08:01:20.586Z,14.99
2022-09-11T08:03:47.256Z,15.03
2022-09-11T08:06:21.424Z,15.15
2022-09-11T08:08:52.459Z,15.35
2022-09-11T08:11:19.795Z,15.41
2022-09-11T08:13:51.520Z,15.55
2022-09-11T08:16:19.672Z,15.49
2022-09-11T08:18:46.492Z,15.51
2022-09-11T08:21:13.345Z,15.45
2022-09-11T08:23:42.125Z,15.52
2022-09-11T08:26:23.693Z,15.33
2022-09-11T08:28:52.752Z,15.50
2022-09-11T08:31:22.084Z,15.57
2022-09-11T08:33:49.361Z,15.79
2022-09-11T08:36:15.988Z,15.86
2022-09-11T08:38:43.943Z,15.82
2022-09-11T08:41:11.222Z,15.75
2022-09-11T08:43:56.643Z,15.88
2022-09-11T08:46:33.847Z,15.79
2022-09-11T08:49:25.452Z,15.63
2022-09-11T08:51:55.173Z,15.70
2022-09-11T08:54:33.540Z,15.87
2022-09-11T08:57:38.726Z,15.98
2022-09-11T09:00:19.957Z,16.12
2022-09-11T09:03:07.863Z,16.37
2022-09-11T09:05:42.992Z,16.54
2022-09-11T09:08:35.118Z,16.68
2022-09-11T09:11:20.539Z,16.43
2022-09-11T09:13:56.114Z,16.73
2022-09-11T09:16:45.477Z,16.97
2022-09-11T09:19:20.211Z,17.21
2022-09-11T09:21:59.778Z,17.32
2022-09-11T09:24:30.970Z,17.49
2022-09-11T09:26:57.611Z,17.56
2022-09-11T09:29:30.561Z,17.67
2022-09-11T09:32:06.524Z,17.59
2022-09-11T09:34:37.461Z,17.70
2022-09-11T09:37:15.190Z,17.83
2022-09-11T09:39:42.119Z,17.76
2022-09-11T09:42:33.108Z,17.81
2022-09-11T09:45:14.556Z,17.65
2022-09-11T09:47:47.850Z,17.46
2022-09-11T09:50:28.555Z,17.18
2022-09-11T09:53:10.640Z,17.31
2022-09-11T09:55:40.467Z,17.50
2022-09-11T09:58:09.864Z,17.72
2022-09-11T10:00:39.650Z,18.01
2022-09-11T10:03:22.176Z,18.53
2022-09-11T10:05:51.411Z,18.77
2022-09-11T10:08:33.459Z,18.80
2022-09-11T10:11:08.505Z,18.69
2022-09-11T10:13:40.461Z,18.50
2022-09-11T10:16:21.130Z,18.42
2022-09-11T10:18:47.705Z,18.20
2022-09-11T10:21:23.016Z,18.11
2022-09-11T10:23:56.945Z,18.04
2022-09-11T10:26:38.252Z,18.15
2022-09-11T10:29:15.542Z,18.32
2022-09-11T10:31:49.887Z,18.62
2022-09-11T10:34:22.436Z,18.99
2022-09-11T10:36:53.067Z,19.13
2022-09-11T10:39:21.229Z,18.90
2022-09-11T10:41:51.633Z,18.81
2022-09-11T10:44:18.539Z,19.03
2022-09-11T10:46:46.102Z,19.20
2022-09-11T10:49:23.455Z,19.07
2022-09-11T10:52:19.254Z,18.96
2022-09-11T10:54:54.998Z,18.89
2022-09-11T10:57:28.356Z,18.89
2022-09-11T10:59:57.953Z,18.87
2022-09-11T11:02:31.790Z,18.73
2022-09-11T11:05:03.166Z,18.95
2022-09-11T11:08:00.793Z,19.09
2022-09-11T11:10:40.639Z,19.18
2022-09-11T11:13:13.422Z,19.16
2022-09-11T11:16:20.273Z,19.02
2022-09-11T11:19:11.565Z,19.13
2022-09-11T11:21:56.954Z,19.19
2022-09-11T11:24:38.697Z,19.27
2022-09-11T11:27:17.210Z,19.25
2022-09-11T11:29:50.712Z,19.15
2022-09-11T11:32:39.467Z,19.10
2022-09-11T11:35:23.367Z,19.01
2022-09-11T11:37:53.908Z,18.87
2022-09-11T11:40:40.792Z,18.79
2022-09-11T11:43:11.778Z,18.74
2022-09-11T11:45:41.506Z,18.50
2022-09-11T11:48:25.422Z,18.56
2022-09-11T11:51:00.961Z,18.57
2022-09-11T11:53:40.573Z,18.53
2022-09-11T11:56:28.858Z,18.56
2022-09-11T11:59:14.097Z,18.67
2022-09-11T12:02:03.218Z,18.71
2022-09-11T12:04:47.001Z,18.66
2022-09-11T12:07:15.406Z,18.80
2022-09-11T12:09:47.336Z,18.79
2022-09-11T12:12:16.557Z,18.96
2022-09-11T12:14:51.587Z,18.92
2022-09-11T12:17:44.727Z,18.94
2022-09-11T12:20:29.936Z,18.93
2022-09-11T12:23:04.399Z,19.04
2022-09-11T12:25:35.507Z,19.09
2022-09-11T12:28:22.653Z,19.14
2022-09-11T12:30:58.839Z,19.13
2022-09-11T12:33:40.805Z,19.28
2022-09-11T12:36:18.886Z,19.46
2022-09-11T12:38:49.239Z,19.61
2022-09-11T12:41:22.907Z,19.66
2022-09-11T12:43:50.298Z,19.92
2022-09-11T12:46:23.179Z,20.08
2022-09-11T12:49:18.089Z,20.26
2022-09-11T12:51:49.962Z,20.19
2022-09-11T12:54:24.942Z,20.09
2022-09-11T12:57:02.502Z,20.04
2022-09-11T12:59:39.322Z,19.88
2022-09-11T13:02:25.750Z,19.59
2022-09-11T13:04:53.775Z,19.68
2022-09-11T13:07:46.658Z,19.40
2022-09-11T13:10:37.139Z,19.36
2022-09-11T13:13:35.799Z,19.35
2022-09-11T13:16:19.292Z,19.39
2022-09-11T13:18:46.066Z,19.33
2022-09-11T13:21:15.685Z,19.35
2022-09-11T13:23:43.165Z,19.16
2022-09-11T13:26:18.249Z,19.35
2022-09-11T13:28:47.919Z,19.45
2022-09-11T13:31:19.633Z,19.34
2022-09-11T13:33:53.074Z,19.42
2022-09-11T13:36:24.218Z,19.62
2022-09-11T13:38:56.161Z,19.65
2022-09-11T13:41:32.696Z,19.60
2022-09-11T13:44:01.291Z,19.75
2022-09-11T13:46:31.682Z,19.69
2022-09-11T13:49:10.939Z,19.85
2022-09-11T13:51:43.673Z,19.85
2022-09-11T13:54:32.948Z,20.01
2022-09-11T13:57:03.124Z,20.09
2022-09-11T13:59:50.398Z,19.70
2022-09-11T14:02:24.423Z,19.84
2022-09-11T14:04:53.018Z,19.95
2022-09-11T14:07:26.472Z,19.68
2022-09-11T14:10:18.234Z,19.60
2022-09-11T14:12:58.733Z,19.58
2022-09-11T14:15:33.794Z,19.61
2022-09-11T14:18:06.730Z,19.65
2022-09-11T14:20:33.566Z,19.75
2022-09-11T14:23:05.730Z,19.81
2022-09-11T14:25:34.110Z,19.94
2022-09-11T14:28:00.752Z,20.13
2022-09-11T14:30:28.249Z,20.04
2022-09-11T14:33:16.922Z,20.10
2022-09-11T14:35:45.958Z,20.40
2022-09-11T14:38:14.446Z,20.35
2022-09-11T14:40:50.237Z,20.28
2022-09-11T14:43:24.317Z,20.23
2022-09-11T14:45:51.506Z,20.29
2022-09-11T14:48:18.862Z,20.20
2022-09-11T14:50:46.585Z,20.20
2022-09-11T14:53:18.812Z,20.17
2022-09-11T14:55:45.398Z,20.07
2022-09-11T14:58:11.930Z,20.07
2022-09-11T15:00:38.490Z,20.21
2022-09-11T15:03:05.073Z,20.07
2022-09-11T15:05:32.791Z,20.06
2022-09-11T15:08:00.465Z,20.04
2022-09-11T15:10:27.514Z,19.97
2022-09-11T15:12:56.043Z,19.92
2022-09-11T15:15:22.784Z,19.84
2022-09-11T15:17:49.481Z,19.96
2022-09-11T15:20:16.462Z,19.71
2022-09-11T15:22:43.222Z,19.73
2022-09-11T15:25:10.166Z,19.81
2022-09-11T15:27:36.825Z,19.72
2022-09-11T15:30:04.651Z,19.54
2022-09-11T15:32:31.514Z,19.52
2022-09-11T15:34:58.287Z,19.51
2022-09-11T15:37:25.289Z,19.27
2022-09-11T15:39:51.819Z,19.26
2022-09-11T15:42:18.939Z,19.35
2022-09-11T15:44:46.277Z,19.14
2022-09-11T15:47:13.738Z,19.14
2022-09-11T15:49:42.388Z,19.08
2022-09-11T15:52:08.939Z,19.12
2022-09-11T15:54:35.693Z,19.02
2022-09-11T15:57:02.308Z,18.98
2022-09-11T15:59:28.860Z,18.98
2022-09-11T16:01:55.752Z,18.90
2022-09-11T16:04:27.546Z,18.76
2022-09-11T16:06:55.238Z,18.81
2022-09-11T16:09:26.826Z,18.56
2022-09-11T16:11:54.741Z,18.52
2022-09-11T16:14:27.355Z,18.30
2022-09-11T16:16:56.071Z,18.30
2022-09-11T16:19:27.539Z,18.14
2022-09-11T16:21:56.562Z,18.08
2022-09-11T16:24:25.568Z,17.96
2022-09-11T16:26:55.829Z,17.96
2022-09-11T16:29:24.039Z,17.91
2022-09-11T16:31:50.651Z,18.01
2022-09-11T16:34:20.159Z,17.95
2022-09-11T16:36:46.893Z,17.79
2022-09-11T16:39:16.213Z,17.95
2022-09-11T16:41:43.421Z,17.79
2022-09-11T16:44:13.686Z,17.80
2022-09-11T16:46:42.334Z,17.73
2022-09-11T16:49:15.462Z,17.59
2022-09-11T16:51:43.031Z,17.57
2022-09-11T16:54:09.582Z,17.53
2022-09-11T16:56:36.208Z,17.55
2022-09-11T16:59:03.189Z,17.56
2022-09-11T17:01:29.743Z,17.56
2022-09-11T17:03:57.817Z,17.58
2022-09-11T17:06:29.980Z,17.69
2022-09-11T17:08:59.751Z,17.56
2022-09-11T17:11:26.782Z,17.50
2022-09-11T17:13:53.573Z,17.62
2022-09-11T17:16:23.784Z,17.76
2022-09-11T17:18:53.968Z,17.70
2022-09-11T17:21:24.166Z,17.74
2022-09-11T17:23:52.600Z,17.58
2022-09-11T17:26:19.365Z,17.59
2022-09-11T17:28:47.778Z,17.53
2022-09-11T17:31:15.973Z,17.45
2022-09-11T17:33:43.650Z,17.33
2022-09-11T17:36:12.329Z,17.23
2022-09-11T17:38:40.447Z,17.18
2022-09-11T17:41:09.290Z,17.13
2022-09-11T17:43:37.427Z,16.93
2022-09-11T17:46:12.162Z,16.91
2022-09-11T17:48:39.784Z,16.65
2022-09-11T17:51:12.540Z,16.49
2022-09-11T17:53:41.562Z,16.45
2022-09-11T17:56:11.171Z,16.22
2022-09-11T17:58:38.398Z,16.00
2022-09-11T18:01:06.262Z,15.89
2022-09-11T18:03:34.467Z,15.81
2022-09-11T18:06:03.185Z,15.74
2022-09-11T18:08:33.315Z,15.67
2022-09-11T18:11:01.238Z,15.67
2022-09-11T18:13:31.980Z,15.61
2022-09-11T18:15:58.668Z,15.51
2022-09-11T18:18:25.646Z,15.39
2022-09-11T18:20:56.422Z,15.29
2022-09-11T18:23:24.209Z,15.16
2022-09-11T18:25:51.609Z,15.00
2022-09-11T18:28:20.050Z,14.88
2022-09-11T18:30:47.545Z,14.77
2022-09-11T18:33:16.773Z,14.61
2022-09-11T18:35:44.254Z,14.49
2022-09-11T18:38:11.002Z,14.43
2022-09-11T18:40:37.488Z,14.31
2022-09-11T18:43:06.342Z,14.24
2022-09-11T18:45:35.283Z,14.15
2022-09-11T18:48:02.355Z,14.06
2022-09-11T18:50:28.952Z,13.95
2022-09-11T18:52:57.078Z,14.01
2022-09-11T18:55:24.365Z,13.91
2022-09-11T18:57:51.680Z,13.96
2022-09-11T19:00:19.376Z,13.86
2022-09-11T19:02:50.364Z,13.74
2022-09-11T19:05:17.689Z,13.71
2022-09-11T19:07:47.564Z,13.68
2022-09-11T19:10:16.137Z,13.63
2022-09-11T19:12:43.250Z,13.62
2022-09-11T19:15:11.354Z,13.64
2022-09-11T19:17:38.256Z,13.67
2022-09-11T19:20:08.419Z,13.66
2022-09-11T19:22:35.625Z,13.62
2022-09-11T19:25:02.635Z,13.57
2022-09-11T19:27:31.705Z,13.48
2022-09-11T19:30:00.398Z,13.39
2022-09-11T19:32:28.897Z,13.31
2022-09-11T19:34:56.082Z,13.25
2022-09-11T19:37:23.757Z,13.21
2022-09-11T19:39:54.074Z,13.14
2022-09-11T19:42:20.973Z,13.08
2022-09-11T19:44:48.112Z,13.13
2022-09-11T19:47:14.696Z,13.17
2022-09-11T19:49:41.202Z,13.22
2022-09-11T19:52:08.278Z,13.35
2022-09-11T19:54:35.438Z,13.51
2022-09-11T19:57:02.605Z,13.47
2022-09-11T19:59:29.265Z,13.46
2022-09-11T20:01:55.890Z,13.44
2022-09-11T20:04:22.712Z,13.41
2022-09-11T20:09:31.905Z,13.11
2022-09-11T20:12:00.615Z,13.05
2022-09-11T20:14:27.435Z,12.96
2022-09-11T20:16:53.967Z,12.93
2022-09-11T20:19:20.624Z,12.85
2022-09-11T20:21:47.167Z,12.78
2022-09-11T20:24:14.958Z,12.70
2022-09-11T20:26:41.492Z,12.65
2022-09-11T20:29:12.553Z,12.59
2022-09-11T20:31:46.858Z,12.55
2022-09-11T20:34:18.560Z,12.54
2022-09-11T20:36:46.259Z,12.48
2022-09-11T20:39:16.046Z,12.47
2022-09-11T20:41:42.913Z,12.43
2022-09-11T20:44:09.960Z,12.39
2022-09-11T20:46:36.626Z,12.33
2022-09-11T20:49:04.446Z,12.29
2022-09-11T20:51:32.559Z,12.20
2022-09-11T20:54:00.596Z,12.23
2022-09-11T20:56:28.073Z,12.19
2022-09-11T20:58:54.879Z,12.07
2022-09-11T21:01:23.163Z,11.96
2022-09-11T21:03:57.143Z,11.85
2022-09-11T21:06:27.515Z,11.83
2022-09-11T21:08:55.973Z,11.79
2022-09-11T21:11:23.422Z,11.77
2022-09-11T21:13:50.820Z,11.73
2022-09-11T21:16:19.915Z,11.76
2022-09-11T21:18:52.134Z,11.70
2022-09-11T21:21:19.654Z,11.72
2022-09-11T21:23:46.578Z,11.66
2022-09-11T21:26:15.918Z,11.52
2022-09-11T21:28:42.947Z,11.50
2022-09-11T21:31:13.429Z,11.44
2022-09-11T21:33:41.338Z,11.56
2022-09-11T21:36:08.008Z,11.54
2022-09-11T21:38:34.570Z,11.43
2022-09-11T21:41:04.487Z,11.38
2022-09-11T21:43:31.623Z,11.31
2022-09-11T21:45:58.732Z,11.41
2022-09-11T21:48:25.685Z,11.37
2022-09-11T21:50:52.628Z,11.33
2022-09-11T21:53:19.929Z,11.19
2022-09-11T21:55:48.676Z,11.12
2022-09-11T21:58:17.670Z,11.05
2022-09-11T22:00:44.396Z,11.01
2022-09-11T22:03:12.315Z,11.05
2022-09-11T22:05:44.206Z,10.93
2022-09-11T22:08:12.314Z,10.88
2022-09-11T22:10:48.159Z,10.84
2022-09-11T22:13:15.471Z,10.81
2022-09-11T22:15:43.298Z,10.71
2022-09-11T22:18:09.974Z,10.69
2022-09-11T22:20:37.689Z,10.71
2022-09-11T22:23:04.409Z,10.82
2022-09-11T22:25:30.964Z,10.87
2022-09-11T22:27:57.677Z,10.78
2022-09-11T22:30:24.224Z,10.68
2022-09-11T22:32:51.274Z,10.60
2022-09-11T22:35:17.826Z,10.49
2022-09-11T22:37:44.336Z,10.42
2022-09-11T22:40:10.973Z,10.41
2022-09-11T22:42:37.551Z,10.38
2022-09-11T22:45:04.409Z,10.34
2022-09-11T22:47:30.908Z,10.31
2022-09-11T22:49:57.427Z,10.29
2022-09-11T22:52:24.071Z,10.23
2022-09-11T22:54:50.640Z,10.26
2022-09-11T22:57:17.245Z,10.23
2022-09-11T22:59:45.361Z,10.25
2022-09-11T23:02:13.488Z,10.12
2022-09-11T23:04:40.082Z,10.13
2022-09-11T23:07:15.971Z,10.12
2022-09-11T23:09:43.855Z,10.12
2022-09-11T23:12:10.758Z,10.09
2022-09-11T23:14:37.367Z,10.15
2022-09-11T23:17:04.034Z,10.18
2022-09-11T23:19:31.571Z,10.13
2022-09-11T23:21:58.097Z,10.07
2022-09-11T23:24:24.599Z,10.03
2022-09-11T23:26:51.096Z,10.00
2022-09-11T23:29:17.655Z,10.01
2022-09-11T23:31:45.091Z,9.97
2022-09-11T23:34:16.077Z,9.90
2022-09-11T23:36:43.417Z,9.85
2022-09-11T23:39:10.140Z,9.82
2022-09-11T23:41:36.634Z,9.74
2022-09-11T23:44:03.957Z,9.74
2022-09-11T23:46:30.504Z,9.69
2022-09-11T23:48:57.064Z,9.66
2022-09-11T23:51:23.982Z,9.70
2022-09-11T23:53:51.806Z,9.82
2022-09-11T23:56:19.108Z,9.80
2022-09-11T23:58:45.745Z,9.70
